createdAt,value
2023-03-20T00:00:08.266Z,9.64
2023-03-20T00:01:08.327Z,9.67
2023-03-20T00:02:08.489Z,9.67
2023-03-20T00:03:09.388Z,9.68
2023-03-20T00:04:08.679Z,9.73
2023-03-20T00:05:10.455Z,9.75
2023-03-20T00:06:12.146Z,9.78
2023-03-20T00:07:11.006Z,9.81
2023-03-20T00:08:09.492Z,9.82
2023-03-20T00:09:10.528Z,9.85
2023-03-20T00:10:10.277Z,9.83
2023-03-20T00:11:11.613Z,9.82
2023-03-20T00:12:11.039Z,9.79
2023-03-20T00:13:11.095Z,9.79
2023-03-20T00:14:11.293Z,9.79
2023-03-20T00:15:12.548Z,9.79
2023-03-20T00:16:12.176Z,9.79
2023-03-20T00:17:11.753Z,9.82
2023-03-20T00:18:12.925Z,9.81
2023-03-20T00:19:12.948Z,9.81
2023-03-20T00:20:13.764Z,9.79
2023-03-20T00:21:12.998Z,9.76
2023-03-20T00:22:13.985Z,9.73
2023-03-20T00:23:13.670Z,9.71
2023-03-20T00:24:13.927Z,9.73
2023-03-20T00:25:14.302Z,9.73
2023-03-20T00:26:14.835Z,9.75
2023-03-20T00:27:14.974Z,9.73
2023-03-20T00:28:15.091Z,9.75
2023-03-20T00:29:15.104Z,9.73
2023-03-20T00:30:14.408Z,9.73
2023-03-20T00:31:16.005Z,9.73
2023-03-20T00:32:15.437Z,9.76
2023-03-20T00:33:15.727Z,9.82
2023-03-20T00:34:16.079Z,9.85
2023-03-20T00:35:18.495Z,9.88
2023-03-20T00:36:20.708Z,9.89
2023-03-20T00:37:18.295Z,9.91
2023-03-20T00:38:16.753Z,9.96
2023-03-20T00:39:17.741Z,10.00
2023-03-20T00:40:17.259Z,10.03
2023-03-20T00:41:18.360Z,10.07
2023-03-20T00:42:19.592Z,10.12
2023-03-20T00:43:17.713Z,10.10
2023-03-20T00:44:20.217Z,10.14
2023-03-20T00:45:18.118Z,10.15
2023-03-20T00:46:20.392Z,10.12
2023-03-20T00:47:18.851Z,10.12
2023-03-20T00:48:20.162Z,10.09
2023-03-20T00:49:19.478Z,10.12
2023-03-20T00:50:21.058Z,10.14
2023-03-20T00:51:19.902Z,10.15
2023-03-20T00:52:20.254Z,10.17
2023-03-20T00:53:21.546Z,10.17
2023-03-20T00:54:22.965Z,10.18
2023-03-20T00:55:21.379Z,10.19
2023-03-20T00:56:21.680Z,10.18
2023-03-20T00:57:22.147Z,10.18
2023-03-20T00:58:23.477Z,10.19
2023-03-20T00:59:22.804Z,10.19
2023-03-20T01:00:25.142Z,10.19
2023-03-20T01:01:23.633Z,10.19
2023-03-20T01:02:24.716Z,10.19
2023-03-20T01:03:23.629Z,10.21
2023-03-20T01:04:25.180Z,10.21
2023-03-20T01:05:26.022Z,10.18
2023-03-20T01:06:35.057Z,10.18
2023-03-20T01:07:24.571Z,10.17
2023-03-20T01:08:26.031Z,10.15
2023-03-20T01:09:24.626Z,10.12
2023-03-20T01:10:26.005Z,10.07
2023-03-20T01:11:24.848Z,10.00
2023-03-20T01:12:25.257Z,9.94
2023-03-20T01:13:25.948Z,9.91
2023-03-20T01:14:25.933Z,9.89
2023-03-20T01:15:27.376Z,9.86
2023-03-20T01:16:27.141Z,9.88
2023-03-20T01:17:28.170Z,9.85
2023-03-20T01:18:27.465Z,9.82
2023-03-20T01:19:27.653Z,9.85
2023-03-20T01:21:29.245Z,9.83
2023-03-20T01:22:27.489Z,9.82
2023-03-20T01:23:26.963Z,9.81
2023-03-20T01:24:27.215Z,9.76
2023-03-20T01:25:27.585Z,9.73
2023-03-20T01:26:27.576Z,9.70
2023-03-20T01:27:27.939Z,9.71
2023-03-20T01:28:29.037Z,9.70
2023-03-20T01:29:29.713Z,9.68
2023-03-20T01:30:28.935Z,9.67
2023-03-20T01:31:29.458Z,9.63
2023-03-20T01:32:29.326Z,9.64
2023-03-20T01:33:30.937Z,9.64
2023-03-20T01:34:30.131Z,9.63
2023-03-20T01:35:32.778Z,9.63
2023-03-20T01:36:32.679Z,9.60
2023-03-20T01:37:30.384Z,9.60
2023-03-20T01:38:31.992Z,9.60
2023-03-20T01:39:31.230Z,9.61
2023-03-20T01:40:32.445Z,9.61
2023-03-20T01:41:31.575Z,9.58
2023-03-20T01:42:31.518Z,9.61
2023-03-20T01:43:32.446Z,9.63
2023-03-20T01:44:31.969Z,9.64
2023-03-20T01:45:31.872Z,9.64
2023-03-20T01:46:33.092Z,9.66
2023-03-20T01:47:33.320Z,9.64
2023-03-20T01:48:32.759Z,9.64
2023-03-20T01:49:33.144Z,9.63
2023-03-20T01:50:34.998Z,9.56
2023-03-20T01:51:34.199Z,9.52
2023-03-20T01:52:36.344Z,9.50
2023-03-20T01:53:34.566Z,9.50
2023-03-20T01:54:35.690Z,9.49
2023-03-20T01:55:34.756Z,9.46
2023-03-20T01:56:35.135Z,9.49
2023-03-20T01:57:35.960Z,9.48
2023-03-20T01:58:35.348Z,9.52
2023-03-20T01:59:35.652Z,9.56
2023-03-20T02:00:36.074Z,9.57
2023-03-20T02:01:36.087Z,9.57
2023-03-20T02:02:36.406Z,9.58
2023-03-20T02:03:38.639Z,9.57
2023-03-20T02:04:39.445Z,9.57
2023-03-20T02:05:39.293Z,9.58
2023-03-20T02:06:52.382Z,9.58
2023-03-20T02:07:37.824Z,9.53
2023-03-20T02:08:39.637Z,9.49
2023-03-20T02:09:38.431Z,9.49
2023-03-20T02:10:39.123Z,9.48
2023-03-20T02:11:41.562Z,9.46
2023-03-20T02:12:40.386Z,9.42
2023-03-20T02:13:39.853Z,9.39
2023-03-20T02:14:42.236Z,9.39
2023-03-20T02:15:41.665Z,9.38
2023-03-20T02:16:41.504Z,9.39
2023-03-20T02:17:40.866Z,9.39
2023-03-20T02:18:41.976Z,9.40
2023-03-20T02:19:42.293Z,9.39
2023-03-20T02:20:41.672Z,9.42
2023-03-20T02:21:41.980Z,9.40
2023-03-20T02:22:42.295Z,9.43
2023-03-20T02:23:44.121Z,9.45
2023-03-20T02:24:42.947Z,9.46
2023-03-20T02:25:44.403Z,9.46
2023-03-20T02:26:48.120Z,9.46
2023-03-20T02:27:45.437Z,9.46
2023-03-20T02:28:43.936Z,9.46
2023-03-20T02:29:44.765Z,9.46
2023-03-20T02:30:44.426Z,9.48
2023-03-20T02:31:44.369Z,9.48
2023-03-20T02:32:45.699Z,9.46
2023-03-20T02:33:49.235Z,9.43
2023-03-20T02:34:45.225Z,9.43
2023-03-20T02:35:47.114Z,9.43
2023-03-20T02:36:48.929Z,9.46
2023-03-20T02:37:47.343Z,9.48
2023-03-20T02:38:46.806Z,9.48
2023-03-20T02:39:48.048Z,9.50
2023-03-20T02:40:47.360Z,9.50
2023-03-20T02:41:47.942Z,9.52
2023-03-20T02:42:47.923Z,9.50
2023-03-20T02:43:48.458Z,9.48
2023-03-20T02:44:50.396Z,9.48
2023-03-20T02:45:48.898Z,9.46
2023-03-20T02:46:48.923Z,9.45
2023-03-20T02:47:48.974Z,9.45
2023-03-20T02:48:49.878Z,9.45
2023-03-20T02:49:49.174Z,9.45
2023-03-20T02:50:50.239Z,9.45
2023-03-20T02:51:49.723Z,9.43
2023-03-20T02:52:51.752Z,9.43
2023-03-20T02:53:51.425Z,9.42
2023-03-20T02:54:49.780Z,9.39
2023-03-20T02:55:51.347Z,9.38
2023-03-20T02:56:52.591Z,9.35
2023-03-20T02:57:50.919Z,9.35
2023-03-20T02:58:53.313Z,9.35
2023-03-20T02:59:52.565Z,9.34
2023-03-20T03:00:53.478Z,9.32
2023-03-20T03:01:53.334Z,9.30
2023-03-20T03:02:53.232Z,9.30
2023-03-20T03:03:55.424Z,9.27
2023-03-20T03:04:54.759Z,9.25
2023-03-20T03:05:54.817Z,9.23
2023-03-20T03:07:02.296Z,9.23
2023-03-20T03:07:53.945Z,9.23
2023-03-20T03:08:55.333Z,9.24
2023-03-20T03:09:54.765Z,9.23
2023-03-20T03:10:55.058Z,9.23
2023-03-20T03:11:55.352Z,9.24
2023-03-20T03:12:55.722Z,9.27
2023-03-20T03:13:56.009Z,9.28
2023-03-20T03:14:57.524Z,9.31
2023-03-20T03:15:56.436Z,9.30
2023-03-20T03:16:57.849Z,9.28
2023-03-20T03:17:58.234Z,9.30
2023-03-20T03:18:57.560Z,9.31
2023-03-20T03:19:57.879Z,9.31
2023-03-20T03:20:59.336Z,9.30
2023-03-20T03:21:58.783Z,9.30
2023-03-20T03:22:58.710Z,9.30
2023-03-20T03:24:01.127Z,9.28
2023-03-20T03:25:00.518Z,9.27
2023-03-20T03:25:59.988Z,9.28
2023-03-20T03:27:00.283Z,9.25
2023-03-20T03:28:02.594Z,9.27
2023-03-20T03:29:01.068Z,9.28
2023-03-20T03:30:02.347Z,9.28
2023-03-20T03:31:02.346Z,9.28
2023-03-20T03:32:02.349Z,9.28
2023-03-20T03:33:02.323Z,9.28
2023-03-20T03:34:03.320Z,9.31
2023-03-20T03:35:03.325Z,9.32
2023-03-20T03:36:04.222Z,9.38
2023-03-20T03:37:04.676Z,9.39
2023-03-20T03:38:03.530Z,9.40
2023-03-20T03:39:04.156Z,9.39
2023-03-20T03:40:04.558Z,9.39
2023-03-20T03:41:04.550Z,9.39
2023-03-20T03:42:04.184Z,9.38
2023-03-20T03:43:04.180Z,9.38
2023-03-20T03:44:05.061Z,9.40
2023-03-20T03:45:06.721Z,9.40
2023-03-20T03:46:06.239Z,9.40
2023-03-20T03:47:06.145Z,9.40
2023-03-20T03:48:06.464Z,9.39
2023-03-20T03:49:06.953Z,9.39
2023-03-20T03:50:07.497Z,9.39
2023-03-20T03:51:08.530Z,9.40
2023-03-20T03:52:07.644Z,9.39
2023-03-20T03:53:07.674Z,9.39
2023-03-20T03:54:07.590Z,9.38
2023-03-20T03:55:07.690Z,9.38
2023-03-20T03:56:08.488Z,9.40
2023-03-20T03:57:08.292Z,9.39
2023-03-20T03:58:08.655Z,9.39
2023-03-20T03:59:08.991Z,9.40
2023-03-20T04:00:09.017Z,9.42
2023-03-20T04:01:09.195Z,9.42
2023-03-20T04:02:09.835Z,9.40
2023-03-20T04:03:10.352Z,9.38
2023-03-20T04:04:09.734Z,9.38
2023-03-20T04:05:10.621Z,9.38
2023-03-20T04:06:13.909Z,9.38
2023-03-20T04:07:10.757Z,9.35
2023-03-20T04:08:11.537Z,9.35
2023-03-20T04:09:11.337Z,9.34
2023-03-20T04:10:11.864Z,9.35
2023-03-20T04:11:12.310Z,9.34
2023-03-20T04:12:12.093Z,9.32
2023-03-20T04:13:12.115Z,9.31
2023-03-20T04:14:12.371Z,9.31
2023-03-20T04:15:13.271Z,9.31
2023-03-20T04:16:13.459Z,9.32
2023-03-20T04:17:13.023Z,9.32
2023-03-20T04:18:12.462Z,9.32
2023-03-20T04:19:12.913Z,9.34
2023-03-20T04:20:14.358Z,9.35
2023-03-20T04:21:13.400Z,9.38
2023-03-20T04:22:14.780Z,9.38
2023-03-20T04:23:14.101Z,9.35
2023-03-20T04:24:16.984Z,9.35
2023-03-20T04:25:17.369Z,9.38
2023-03-20T04:26:15.466Z,9.35
2023-03-20T04:27:16.292Z,9.34
2023-03-20T04:28:17.458Z,9.32
2023-03-20T04:29:17.841Z,9.34
2023-03-20T04:30:18.223Z,9.32
2023-03-20T04:31:17.662Z,9.34
2023-03-20T04:32:20.500Z,9.38
2023-03-20T04:33:17.519Z,9.40
2023-03-20T04:34:20.651Z,9.42
2023-03-20T04:35:19.427Z,9.40
2023-03-20T04:36:22.740Z,9.39
2023-03-20T04:37:18.198Z,9.34
2023-03-20T04:38:18.714Z,9.35
2023-03-20T04:39:19.526Z,9.35
2023-03-20T04:40:19.340Z,9.35
2023-03-20T04:41:19.602Z,9.38
2023-03-20T04:42:19.900Z,9.38
2023-03-20T04:43:20.330Z,9.35
2023-03-20T04:44:20.236Z,9.38
2023-03-20T04:45:20.580Z,9.38
2023-03-20T04:46:21.187Z,9.39
2023-03-20T04:47:22.433Z,9.40
2023-03-20T04:48:21.298Z,9.42
2023-03-20T04:49:23.907Z,9.42
2023-03-20T04:50:21.762Z,9.40
2023-03-20T04:51:22.096Z,9.39
2023-03-20T04:52:22.486Z,9.40
2023-03-20T04:53:27.028Z,9.39
2023-03-20T04:54:22.963Z,9.40
2023-03-20T04:55:24.458Z,9.39
2023-03-20T04:56:24.245Z,9.39
2023-03-20T04:57:23.575Z,9.39
2023-03-20T04:58:23.925Z,9.39
2023-03-20T04:59:24.434Z,9.39
2023-03-20T05:00:25.856Z,9.39
2023-03-20T05:01:26.749Z,9.39
2023-03-20T05:02:26.112Z,9.38
2023-03-20T05:03:25.416Z,9.38
2023-03-20T05:04:28.216Z,9.35
2023-03-20T05:05:27.127Z,9.35
2023-03-20T05:06:35.406Z,9.35
2023-03-20T05:07:27.903Z,9.35
2023-03-20T05:08:30.160Z,9.39
2023-03-20T05:09:27.358Z,9.40
2023-03-20T05:10:27.671Z,9.39
2023-03-20T05:11:28.125Z,9.39
2023-03-20T05:12:29.750Z,9.38
2023-03-20T05:13:28.641Z,9.39
2023-03-20T05:14:29.452Z,9.39
2023-03-20T05:15:29.332Z,9.38
2023-03-20T05:16:31.158Z,9.40
2023-03-20T05:17:29.986Z,9.42
2023-03-20T05:18:30.427Z,9.42
2023-03-20T05:19:30.553Z,9.42
2023-03-20T05:20:30.396Z,9.42
2023-03-20T05:21:32.816Z,9.42
2023-03-20T05:22:31.188Z,9.40
2023-03-20T05:23:31.544Z,9.42
2023-03-20T05:24:31.889Z,9.42
2023-03-20T05:25:32.703Z,9.42
2023-03-20T05:26:32.934Z,9.45
2023-03-20T05:27:34.240Z,9.46
2023-03-20T05:28:33.085Z,9.49
2023-03-20T05:29:33.357Z,9.49
2023-03-20T05:30:35.196Z,9.52
2023-03-20T05:31:34.085Z,9.53
2023-03-20T05:32:35.489Z,9.56
2023-03-20T05:33:37.885Z,9.58
2023-03-20T05:34:35.970Z,9.58
2023-03-20T05:35:36.579Z,9.60
2023-03-20T05:37:00.364Z,9.60
2023-03-20T05:37:37.591Z,9.63
2023-03-20T05:38:36.893Z,9.63
2023-03-20T05:39:36.402Z,9.64
2023-03-20T05:40:37.152Z,9.63
2023-03-20T05:41:36.659Z,9.63
2023-03-20T05:42:37.454Z,9.63
2023-03-20T05:43:37.840Z,9.63
2023-03-20T05:44:37.167Z,9.64
2023-03-20T05:45:38.458Z,9.61
2023-03-20T05:46:40.465Z,9.61
2023-03-20T05:47:41.011Z,9.61
2023-03-20T05:48:38.360Z,9.61
2023-03-20T05:49:38.733Z,9.61
2023-03-20T05:50:39.042Z,9.63
2023-03-20T05:51:39.386Z,9.63
2023-03-20T05:52:41.814Z,9.63
2023-03-20T05:53:41.254Z,9.64
2023-03-20T05:54:40.567Z,9.64
2023-03-20T05:55:41.924Z,9.64
2023-03-20T05:56:41.253Z,9.64
2023-03-20T05:57:41.756Z,9.64
2023-03-20T05:58:43.087Z,9.63
2023-03-20T05:59:43.110Z,9.60
2023-03-20T06:00:42.593Z,9.58
2023-03-20T06:01:44.912Z,9.57
2023-03-20T06:02:47.200Z,9.56
2023-03-20T06:03:43.644Z,9.53
2023-03-20T06:04:46.160Z,9.53
2023-03-20T06:05:45.943Z,9.52
2023-03-20T06:06:47.654Z,9.49
2023-03-20T06:07:44.806Z,9.46
2023-03-20T06:08:46.108Z,9.45
2023-03-20T06:09:47.399Z,9.43
2023-03-20T06:10:46.875Z,9.40
2023-03-20T06:11:46.150Z,9.35
2023-03-20T06:12:47.803Z,9.34
2023-03-20T06:13:46.767Z,9.25
2023-03-20T06:14:48.274Z,9.23
2023-03-20T06:15:49.688Z,9.21
2023-03-20T06:16:48.105Z,9.18
2023-03-20T06:17:50.563Z,9.15
2023-03-20T06:18:49.069Z,9.10
2023-03-20T06:19:49.067Z,9.12
2023-03-20T06:20:50.164Z,9.12
2023-03-20T06:21:50.899Z,9.10
2023-03-20T06:22:50.818Z,9.10
2023-03-20T06:23:50.131Z,9.12
2023-03-20T06:24:51.623Z,9.15
2023-03-20T06:25:53.155Z,9.18
2023-03-20T06:26:53.281Z,9.21
2023-03-20T06:27:52.248Z,9.27
2023-03-20T06:28:52.532Z,9.28
2023-03-20T06:29:54.319Z,9.31
2023-03-20T06:30:57.225Z,9.30
2023-03-20T06:31:54.062Z,9.28
2023-03-20T06:32:54.251Z,9.28
2023-03-20T06:33:56.036Z,9.30
2023-03-20T06:34:53.897Z,9.31
2023-03-20T06:38:03.386Z,9.34
2023-03-20T06:40:01.161Z,9.35
2023-03-20T06:40:56.023Z,9.35
2023-03-20T06:41:59.894Z,9.35
2023-03-20T06:42:55.770Z,9.34
2023-03-20T06:43:56.336Z,9.34
2023-03-20T06:44:57.059Z,9.34
2023-03-20T06:45:57.115Z,9.34
2023-03-20T06:46:56.290Z,9.34
2023-03-20T06:47:57.706Z,9.31
2023-03-20T06:48:57.629Z,9.31
2023-03-20T06:49:58.917Z,9.31
2023-03-20T06:50:58.125Z,9.31
2023-03-20T06:51:57.536Z,9.34
2023-03-20T06:53:01.854Z,9.34
2023-03-20T06:54:00.806Z,9.35
2023-03-20T06:54:58.526Z,9.35
2023-03-20T06:56:04.311Z,9.35
2023-03-20T06:56:59.159Z,9.38
2023-03-20T06:57:59.385Z,9.38
2023-03-20T06:59:00.145Z,9.35
2023-03-20T07:00:02.294Z,9.34
2023-03-20T07:01:01.288Z,9.38
2023-03-20T07:02:00.242Z,9.38
2023-03-20T07:03:02.299Z,9.38
2023-03-20T07:04:01.404Z,9.38
2023-03-20T07:05:02.316Z,9.40
2023-03-20T07:06:01.479Z,9.43
2023-03-20T07:07:11.642Z,9.46
2023-03-20T07:08:03.423Z,9.49
2023-03-20T07:09:13.212Z,9.56
2023-03-20T07:10:02.631Z,9.58
2023-03-20T07:11:02.218Z,9.66
2023-03-20T07:12:04.256Z,9.71
2023-03-20T07:13:03.877Z,9.76
2023-03-20T07:14:04.256Z,9.81
2023-03-20T07:15:04.001Z,9.89
2023-03-20T07:16:05.527Z,9.96
2023-03-20T07:17:05.220Z,10.00
2023-03-20T07:18:44.400Z,9.97
2023-03-20T07:19:23.264Z,9.94
2023-03-20T07:22:37.482Z,10.00
2023-03-20T07:24:29.209Z,10.03
2023-03-20T07:25:41.857Z,10.07
2023-03-20T07:30:34.071Z,10.09
2023-03-20T07:31:28.270Z,10.10
2023-03-20T07:32:40.054Z,10.09
2023-03-20T07:33:30.379Z,10.10
2023-03-20T07:34:31.667Z,10.07
2023-03-20T07:35:30.322Z,10.12
2023-03-20T07:36:26.784Z,10.12
2023-03-20T07:38:35.496Z,10.14
2023-03-20T07:39:28.898Z,10.17
2023-03-20T07:40:30.628Z,10.18
2023-03-20T07:41:28.478Z,10.19
2023-03-20T07:42:29.977Z,10.26
2023-03-20T07:43:31.151Z,10.30
2023-03-20T07:44:27.260Z,10.28
2023-03-20T07:45:35.699Z,10.25
2023-03-20T07:46:45.059Z,10.22
2023-03-20T07:47:42.202Z,10.12
2023-03-20T07:48:30.581Z,10.09
2023-03-20T07:49:33.997Z,10.04
2023-03-20T07:50:31.133Z,10.01
2023-03-20T07:51:44.701Z,10.00
2023-03-20T07:52:30.657Z,9.99
2023-03-20T07:53:29.913Z,9.99
2023-03-20T07:54:32.065Z,9.99
2023-03-20T07:55:32.414Z,10.00
2023-03-20T07:57:33.524Z,9.96
2023-03-20T07:58:39.067Z,9.94
2023-03-20T07:59:32.992Z,9.89
2023-03-20T08:00:55.794Z,9.85
2023-03-20T08:01:32.526Z,9.83
2023-03-20T08:02:33.697Z,9.85
2023-03-20T08:03:32.547Z,9.85
2023-03-20T08:04:37.020Z,9.88
2023-03-20T08:05:38.159Z,9.89
2023-03-20T08:07:46.408Z,9.91
2023-03-20T08:09:16.836Z,10.00
2023-03-20T08:10:23.372Z,10.12
2023-03-20T08:11:23.217Z,10.25
2023-03-20T08:12:26.356Z,10.36
2023-03-20T08:13:23.224Z,10.46
2023-03-20T08:14:14.901Z,10.47
2023-03-20T08:15:21.028Z,10.47
2023-03-20T08:16:29.212Z,10.53
2023-03-20T08:17:28.765Z,10.55
2023-03-20T08:18:20.912Z,10.62
2023-03-20T08:19:18.818Z,10.68
2023-03-20T08:21:29.390Z,10.77
2023-03-20T08:22:24.760Z,10.89
2023-03-20T08:23:19.414Z,11.01
2023-03-20T08:24:25.310Z,10.99
2023-03-20T08:25:34.674Z,11.07
2023-03-20T08:27:24.414Z,11.19
2023-03-20T08:37:41.652Z,10.89
2023-03-20T08:38:28.343Z,10.92
2023-03-20T08:39:28.012Z,10.96
2023-03-20T08:41:25.379Z,10.91
2023-03-20T08:42:31.863Z,10.92
2023-03-20T08:43:32.309Z,10.89
2023-03-20T08:44:59.036Z,10.92
2023-03-20T08:46:17.250Z,10.92
2023-03-20T08:48:41.821Z,10.89
2023-03-20T08:50:12.766Z,10.83
2023-03-20T08:50:46.249Z,10.83
2023-03-20T08:52:06.633Z,10.88
2023-03-20T08:53:38.881Z,10.91
2023-03-20T08:54:55.834Z,10.86
2023-03-20T08:55:45.926Z,10.77
2023-03-20T08:57:54.992Z,10.70
2023-03-20T08:58:43.071Z,10.66
2023-03-20T08:59:45.057Z,10.63
2023-03-20T09:08:35.282Z,10.26
2023-03-20T09:15:01.555Z,10.15
2023-03-20T09:16:13.743Z,10.15
2023-03-20T09:21:29.516Z,10.39
2023-03-20T09:23:11.132Z,10.42
2023-03-20T09:26:56.354Z,10.58
2023-03-20T09:32:29.716Z,10.70
2023-03-20T09:34:08.810Z,10.78
2023-03-20T09:35:13.712Z,10.95
2023-03-20T09:35:59.177Z,11.31
2023-03-20T09:38:01.666Z,11.29
2023-03-20T09:39:18.369Z,11.31
2023-03-20T09:43:05.541Z,11.17
2023-03-20T09:44:20.688Z,11.35
2023-03-20T09:45:10.616Z,11.36
2023-03-20T09:46:06.616Z,11.27
2023-03-20T09:46:49.226Z,11.38
2023-03-20T09:48:03.230Z,11.39
2023-03-20T09:48:45.757Z,11.38
2023-03-20T09:49:59.893Z,11.31
2023-03-20T09:51:31.688Z,11.13
2023-03-20T09:51:52.328Z,11.20
2023-03-20T09:53:28.629Z,11.39
2023-03-20T09:55:10.900Z,11.67
2023-03-20T09:55:53.063Z,11.65
2023-03-20T09:57:02.863Z,11.49
2023-03-20T09:58:14.410Z,11.35
2023-03-20T09:59:56.692Z,11.50
2023-03-20T10:00:59.806Z,11.49
2023-03-20T10:02:24.042Z,11.57
2023-03-20T10:03:09.494Z,11.68
2023-03-20T10:03:57.507Z,11.65
2023-03-20T10:04:53.940Z,11.56
2023-03-20T10:07:14.542Z,11.43
2023-03-20T10:08:02.644Z,11.41
2023-03-20T10:09:07.358Z,11.43
2023-03-20T10:10:06.969Z,11.38
2023-03-20T10:11:03.936Z,11.31
2023-03-20T10:12:01.191Z,11.13
2023-03-20T10:13:57.984Z,11.25
2023-03-20T10:18:05.363Z,11.38
2023-03-20T10:18:58.799Z,11.35
2023-03-20T10:19:57.273Z,11.39
2023-03-20T10:21:02.799Z,11.44
2023-03-20T10:22:05.963Z,11.54
2023-03-20T10:23:03.891Z,11.56
2023-03-20T10:24:57.860Z,11.97
2023-03-20T10:26:00.969Z,12.02
2023-03-20T10:27:05.263Z,12.15
2023-03-20T10:28:05.985Z,12.29
2023-03-20T10:29:13.432Z,12.41
2023-03-20T10:30:08.655Z,12.42
2023-03-20T10:31:05.273Z,12.33
2023-03-20T10:32:17.487Z,12.37
2023-03-20T10:34:14.117Z,12.44
2023-03-20T10:35:13.416Z,12.30
2023-03-20T10:36:08.286Z,12.30
2023-03-20T10:37:26.172Z,12.38
2023-03-20T10:38:07.091Z,12.13
2023-03-20T10:39:02.591Z,12.12
2023-03-20T10:40:07.366Z,12.27
2023-03-20T10:41:10.126Z,12.38
2023-03-20T10:42:07.383Z,12.37
2023-03-20T10:43:11.781Z,12.33
2023-03-20T10:44:06.213Z,12.12
2023-03-20T10:45:08.380Z,12.06
2023-03-20T10:46:17.229Z,12.05
2023-03-20T10:47:05.919Z,11.85
2023-03-20T10:48:06.007Z,11.71
2023-03-20T10:49:17.782Z,11.74
2023-03-20T10:50:17.093Z,11.82
2023-03-20T10:51:06.734Z,11.93
2023-03-20T10:52:31.815Z,11.78
2023-03-20T10:53:05.570Z,11.68
2023-03-20T10:54:16.783Z,11.64
2023-03-20T10:55:19.259Z,11.62
2023-03-20T10:58:25.318Z,11.68
2023-03-20T10:59:08.570Z,11.80
2023-03-20T11:00:16.498Z,11.89
2023-03-20T11:01:10.498Z,12.06
2023-03-20T11:02:42.151Z,12.13
2023-03-20T11:03:34.706Z,12.04
2023-03-20T11:04:52.612Z,12.11
2023-03-20T11:05:19.626Z,12.15
2023-03-20T11:06:42.177Z,12.15
2023-03-20T11:07:13.671Z,11.96
2023-03-20T11:09:39.804Z,11.94
2023-03-20T11:10:20.741Z,11.99
2023-03-20T11:11:15.360Z,11.94
2023-03-20T11:12:29.881Z,11.80
2023-03-20T11:13:23.507Z,11.68
2023-03-20T11:14:33.584Z,11.64
2023-03-20T11:15:21.828Z,11.68
2023-03-20T11:16:21.473Z,11.61
2023-03-20T11:21:24.562Z,11.46
2023-03-20T11:24:18.863Z,11.44
2023-03-20T11:26:17.361Z,11.47
2023-03-20T11:27:23.753Z,11.43
2023-03-20T11:28:15.835Z,11.41
2023-03-20T11:29:40.027Z,11.44
2023-03-20T11:30:17.011Z,11.47
2023-03-20T11:31:21.699Z,11.54
2023-03-20T11:32:18.085Z,11.67
2023-03-20T11:33:34.448Z,11.71
2023-03-20T11:34:56.796Z,11.80
2023-03-20T11:35:47.131Z,11.93
2023-03-20T11:36:22.295Z,11.97
2023-03-20T11:38:24.643Z,11.86
2023-03-20T11:39:22.621Z,11.82
2023-03-20T11:40:44.256Z,11.75
2023-03-20T11:41:20.161Z,11.65
2023-03-20T11:42:28.909Z,11.64
2023-03-20T11:43:22.081Z,11.68
2023-03-20T11:44:28.259Z,11.83
2023-03-20T11:45:20.888Z,11.97
2023-03-20T11:46:24.053Z,12.01
2023-03-20T11:47:20.599Z,12.04
2023-03-20T11:49:04.657Z,12.04
2023-03-20T11:49:26.927Z,12.04
2023-03-20T11:50:35.817Z,12.01
2023-03-20T11:51:37.073Z,11.93
2023-03-20T11:52:44.136Z,11.96
2023-03-20T11:54:22.771Z,11.93
2023-03-20T11:55:29.908Z,11.75
2023-03-20T11:58:52.235Z,11.67
2023-03-20T12:00:11.790Z,11.89
2023-03-20T12:01:17.945Z,12.02
2023-03-20T12:02:14.777Z,12.13
2023-03-20T12:03:23.638Z,11.99
2023-03-20T12:04:20.448Z,11.93
2023-03-20T12:05:16.392Z,11.83
2023-03-20T12:06:19.988Z,11.83
2023-03-20T12:08:13.108Z,12.08
2023-03-20T12:09:20.851Z,12.19
2023-03-20T12:10:16.019Z,12.20
2023-03-20T12:11:12.712Z,12.11
2023-03-20T12:12:17.024Z,12.06
2023-03-20T12:13:13.373Z,12.11
2023-03-20T12:14:18.492Z,12.21
2023-03-20T12:15:15.134Z,12.33
2023-03-20T12:16:14.365Z,12.44
2023-03-20T12:17:18.464Z,12.34
2023-03-20T12:18:15.197Z,12.33
2023-03-20T12:19:13.521Z,12.31
2023-03-20T12:20:35.062Z,12.38
2023-03-20T12:21:21.240Z,12.54
2023-03-20T12:22:21.760Z,12.64
2023-03-20T12:23:16.244Z,12.71
2023-03-20T12:24:25.927Z,12.84
2023-03-20T12:25:39.871Z,12.92
2023-03-20T12:26:22.506Z,12.82
2023-03-20T12:27:15.510Z,12.81
2023-03-20T12:28:25.451Z,12.79
2023-03-20T12:29:17.237Z,12.85
2023-03-20T12:30:34.978Z,12.97
2023-03-20T12:31:15.829Z,13.09
2023-03-20T12:32:16.321Z,13.27
2023-03-20T12:33:27.639Z,13.27
2023-03-20T12:34:19.481Z,13.12
2023-03-20T12:35:20.578Z,12.92
2023-03-20T12:37:26.489Z,12.54
2023-03-20T12:38:30.466Z,12.15
2023-03-20T12:39:17.115Z,12.09
2023-03-20T12:40:22.062Z,12.13
2023-03-20T12:41:20.502Z,12.24
2023-03-20T12:42:24.782Z,12.20
2023-03-20T12:43:25.285Z,12.20
2023-03-20T12:44:18.218Z,12.23
2023-03-20T12:45:18.436Z,12.19
2023-03-20T12:46:20.902Z,12.23
2023-03-20T12:47:20.262Z,12.27
2023-03-20T12:48:21.842Z,12.33
2023-03-20T12:49:20.196Z,12.29
2023-03-20T12:50:20.699Z,12.33
2023-03-20T12:51:20.665Z,12.31
2023-03-20T12:52:21.172Z,12.44
2023-03-20T12:53:21.156Z,12.60
2023-03-20T12:54:20.504Z,12.52
2023-03-20T12:55:20.229Z,12.63
2023-03-20T12:56:22.957Z,12.63
2023-03-20T12:57:20.428Z,12.69
2023-03-20T12:58:22.478Z,12.79
2023-03-20T12:59:20.909Z,12.92
2023-03-20T13:00:22.282Z,13.07
2023-03-20T13:01:22.382Z,13.30
2023-03-20T13:02:31.361Z,13.43
2023-03-20T13:03:23.724Z,13.44
2023-03-20T13:04:24.042Z,13.40
2023-03-20T13:05:22.372Z,13.37
2023-03-20T13:06:57.006Z,13.40
2023-03-20T13:07:25.579Z,13.37
2023-03-20T13:09:26.730Z,13.33
2023-03-20T13:10:29.668Z,13.41
2023-03-20T13:11:28.619Z,13.44
2023-03-20T13:12:26.990Z,13.46
2023-03-20T13:13:29.675Z,13.40
2023-03-20T13:14:29.130Z,13.17
2023-03-20T13:15:24.370Z,12.92
2023-03-20T13:16:26.783Z,12.84
2023-03-20T13:17:27.858Z,12.84
2023-03-20T13:18:33.903Z,13.00
2023-03-20T13:19:25.492Z,13.09
2023-03-20T13:20:32.971Z,12.95
2023-03-20T13:21:26.387Z,12.89
2023-03-20T13:24:36.072Z,12.71
2023-03-20T13:25:34.951Z,12.60
2023-03-20T13:26:43.328Z,12.62
2023-03-20T13:27:32.041Z,12.62
2023-03-20T13:28:27.751Z,12.64
2023-03-20T13:29:36.352Z,12.66
2023-03-20T13:30:28.554Z,12.66
2023-03-20T13:31:29.625Z,12.81
2023-03-20T13:32:29.362Z,12.99
2023-03-20T13:33:30.147Z,13.03
2023-03-20T13:34:28.994Z,13.04
2023-03-20T13:35:44.729Z,13.18
2023-03-20T13:36:53.346Z,13.30
2023-03-20T13:37:32.884Z,13.37
2023-03-20T13:38:35.153Z,13.32
2023-03-20T13:39:36.242Z,13.33
2023-03-20T13:40:35.713Z,13.15
2023-03-20T13:41:32.299Z,13.11
2023-03-20T13:42:46.674Z,13.09
2023-03-20T13:44:34.194Z,12.71
2023-03-20T13:45:32.341Z,12.67
2023-03-20T13:46:31.923Z,12.70
2023-03-20T13:47:56.198Z,12.71
2023-03-20T13:48:37.949Z,12.39
2023-03-20T13:49:32.478Z,12.33
2023-03-20T13:50:32.553Z,12.37
2023-03-20T13:51:36.090Z,12.37
2023-03-20T13:52:33.516Z,12.38
2023-03-20T13:53:36.714Z,12.37
2023-03-20T13:54:33.317Z,12.27
2023-03-20T13:55:36.077Z,12.21
2023-03-20T13:56:34.154Z,12.15
2023-03-20T13:57:34.728Z,12.13
2023-03-20T13:58:36.286Z,12.08
2023-03-20T13:59:35.256Z,11.97
2023-03-20T14:00:36.710Z,11.90
2023-03-20T14:01:37.677Z,11.82
2023-03-20T14:02:38.611Z,11.71
2023-03-20T14:03:37.414Z,11.65
2023-03-20T14:04:36.501Z,11.61
2023-03-20T14:05:40.451Z,11.53
2023-03-20T14:06:54.146Z,11.50
2023-03-20T14:07:38.250Z,11.50
2023-03-20T14:08:37.500Z,11.53
2023-03-20T14:09:38.899Z,11.46
2023-03-20T14:10:38.301Z,11.43
2023-03-20T14:11:40.356Z,11.43
2023-03-20T14:12:38.180Z,11.41
2023-03-20T14:13:40.658Z,11.43
2023-03-20T14:14:38.802Z,11.39
2023-03-20T14:15:38.962Z,11.41
2023-03-20T14:16:38.426Z,11.44
2023-03-20T14:17:40.370Z,11.49
2023-03-20T14:18:39.803Z,11.49
2023-03-20T14:19:40.012Z,11.50
2023-03-20T14:20:40.510Z,11.50
2023-03-20T14:21:40.241Z,11.52
2023-03-20T14:22:40.483Z,11.47
2023-03-20T14:23:44.059Z,11.49
2023-03-20T14:24:40.796Z,11.57
2023-03-20T14:25:43.728Z,11.64
2023-03-20T14:26:42.548Z,11.67
2023-03-20T14:27:44.706Z,11.72
2023-03-20T14:28:42.626Z,11.72
2023-03-20T14:29:42.553Z,11.77
2023-03-20T14:30:42.281Z,11.70
2023-03-20T14:31:43.278Z,11.70
2023-03-20T14:32:42.757Z,11.72
2023-03-20T14:33:43.758Z,11.77
2023-03-20T14:34:43.222Z,11.71
2023-03-20T14:35:43.664Z,11.57
2023-03-20T14:36:50.569Z,11.43
2023-03-20T14:37:44.358Z,11.41
2023-03-20T14:38:47.077Z,11.46
2023-03-20T14:39:45.269Z,11.53
2023-03-20T14:40:47.416Z,11.49